Federal Dam, Minnesota
Current Conditions -  °F | °C
As of 5:55 PM on Friday 21 Nov 2014 (Local Time) from KY49 Reporting Station
Clear Clear  
Wind Chill: 16°   Ceiling: Unl
Heat Index: 28°   Visibility: 10mi
Dew Point: 21°   Wind: 15mph
Humidity: 77%   Direction: 200°SSW
Pressure: 29.74"   Gusts: 22mph
Location:  47.25°N, 94.21°W
Report Text: KY49 212355Z AUTO 20013G19KT 10SM CLR M02/M06 A2974 RMK AO2 T10251060 11020 21041
Loading
Personal Weather Stations






























Interactive Weather Map New forecast layout! Learn more

10-Day Weather Forecast

Advertisements
Track Severe Weather on mobile